sensor_id;sensor_type;location;lat;lon;timestamp;P1;durP1;ratioP1;P2;durP2;ratioP2
78787;SDS011;68131;52.508;5.502;2023-03-23T00:00:37;6.28;;;3.22;;
78787;SDS011;68131;52.508;5.502;2023-03-23T00:03:06;5.95;;;4.18;;
78787;SDS011;68131;52.508;5.502;2023-03-23T00:05:35;7.65;;;3.63;;
78787;SDS011;68131;52.508;5.502;2023-03-23T00:08:15;7.13;;;3.60;;
78787;SDS011;68131;52.508;5.502;2023-03-23T00:10:50;6.60;;;3.45;;
78787;SDS011;68131;52.508;5.502;2023-03-23T00:13:22;7.88;;;4.25;;
78787;SDS011;68131;52.508;5.502;2023-03-23T00:15:51;8.65;;;4.25;;
78787;SDS011;68131;52.508;5.502;2023-03-23T00:18:22;5.03;;;3.15;;
78787;SDS011;68131;52.508;5.502;2023-03-23T00:20:52;5.53;;;3.67;;
78787;SDS011;68131;52.508;5.502;2023-03-23T00:23:24;5.03;;;2.78;;
78787;SDS011;68131;52.508;5.502;2023-03-23T00:25:56;7.05;;;3.58;;
78787;SDS011;68131;52.508;5.502;2023-03-23T00:28:26;6.25;;;3.42;;
78787;SDS011;68131;52.508;5.502;2023-03-23T00:30:56;5.18;;;3.25;;
78787;SDS011;68131;52.508;5.502;2023-03-23T00:33:27;10.00;;;3.70;;
78787;SDS011;68131;52.508;5.502;2023-03-23T00:35:59;8.70;;;3.40;;
78787;SDS011;68131;52.508;5.502;2023-03-23T00:38:28;5.60;;;3.22;;
78787;SDS011;68131;52.508;5.502;2023-03-23T00:41:00;5.88;;;3.15;;
78787;SDS011;68131;52.508;5.502;2023-03-23T00:43:30;5.22;;;2.92;;
78787;SDS011;68131;52.508;5.502;2023-03-23T00:46:01;5.05;;;3.28;;
78787;SDS011;68131;52.508;5.502;2023-03-23T00:48:34;6.68;;;3.25;;
78787;SDS011;68131;52.508;5.502;2023-03-23T00:51:06;6.50;;;3.20;;
78787;SDS011;68131;52.508;5.502;2023-03-23T00:53:37;5.97;;;3.00;;
78787;SDS011;68131;52.508;5.502;2023-03-23T00:56:09;5.72;;;3.20;;
78787;SDS011;68131;52.508;5.502;2023-03-23T00:58:39;6.15;;;3.28;;
78787;SDS011;68131;52.508;5.502;2023-03-23T01:01:08;4.40;;;3.05;;
78787;SDS011;68131;52.508;5.502;2023-03-23T01:03:40;5.60;;;2.90;;
78787;SDS011;68131;52.508;5.502;2023-03-23T01:06:10;5.07;;;2.60;;
78787;SDS011;68131;52.508;5.502;2023-03-23T01:08:43;3.95;;;2.22;;
78787;SDS011;68131;52.508;5.502;2023-03-23T01:11:17;5.05;;;2.78;;
78787;SDS011;68131;52.508;5.502;2023-03-23T01:13:46;4.05;;;2.78;;
78787;SDS011;68131;52.508;5.502;2023-03-23T01:16:15;5.53;;;2.53;;
78787;SDS011;68131;52.508;5.502;2023-03-23T01:18:44;5.72;;;3.08;;
78787;SDS011;68131;52.508;5.502;2023-03-23T01:21:14;7.03;;;2.75;;
78787;SDS011;68131;52.508;5.502;2023-03-23T01:23:45;6.82;;;2.60;;
78787;SDS011;68131;52.508;5.502;2023-03-23T01:26:18;4.88;;;2.53;;
78787;SDS011;68131;52.508;5.502;2023-03-23T01:28:49;5.15;;;2.78;;
78787;SDS011;68131;52.508;5.502;2023-03-23T01:31:19;4.35;;;2.35;;
78787;SDS011;68131;52.508;5.502;2023-03-23T01:33:49;8.20;;;2.42;;
78787;SDS011;68131;52.508;5.502;2023-03-23T01:36:22;5.40;;;2.80;;
78787;SDS011;68131;52.508;5.502;2023-03-23T01:38:54;5.80;;;3.10;;
78787;SDS011;68131;52.508;5.502;2023-03-23T01:41:27;5.50;;;2.28;;
78787;SDS011;68131;52.508;5.502;2023-03-23T01:43:58;6.32;;;2.60;;
78787;SDS011;68131;52.508;5.502;2023-03-23T01:46:35;4.65;;;2.65;;
78787;SDS011;68131;52.508;5.502;2023-03-23T01:49:06;8.43;;;2.58;;
78787;SDS011;68131;52.508;5.502;2023-03-23T01:51:39;7.00;;;2.67;;
78787;SDS011;68131;52.508;5.502;2023-03-23T01:56:47;4.35;;;2.40;;
78787;SDS011;68131;52.508;5.502;2023-03-23T01:59:20;6.07;;;2.55;;
78787;SDS011;68131;52.508;5.502;2023-03-23T02:02:07;5.00;;;2.60;;
78787;SDS011;68131;52.508;5.502;2023-03-23T02:04:38;4.40;;;2.20;;
78787;SDS011;68131;52.508;5.502;2023-03-23T02:07:10;5.70;;;2.10;;
78787;SDS011;68131;52.508;5.502;2023-03-23T02:09:42;5.53;;;2.40;;
78787;SDS011;68131;52.508;5.502;2023-03-23T02:12:14;4.75;;;2.10;;
78787;SDS011;68131;52.508;5.502;2023-03-23T02:14:43;5.75;;;2.15;;
78787;SDS011;68131;52.508;5.502;2023-03-23T02:17:14;4.43;;;3.03;;
78787;SDS011;68131;52.508;5.502;2023-03-23T02:25:56;4.10;;;2.20;;
78787;SDS011;68131;52.508;5.502;2023-03-23T02:31:42;3.83;;;1.80;;
78787;SDS011;68131;52.508;5.502;2023-03-23T02:34:18;2.75;;;1.63;;
78787;SDS011;68131;52.508;5.502;2023-03-23T02:36:55;2.22;;;1.98;;
78787;SDS011;68131;52.508;5.502;2023-03-23T02:39:29;5.47;;;2.60;;
78787;SDS011;68131;52.508;5.502;2023-03-23T02:42:02;5.07;;;1.65;;
78787;SDS011;68131;52.508;5.502;2023-03-23T02:44:36;5.80;;;2.30;;
78787;SDS011;68131;52.508;5.502;2023-03-23T02:47:11;4.28;;;1.95;;
78787;SDS011;68131;52.508;5.502;2023-03-23T02:49:46;2.78;;;1.55;;
78787;SDS011;68131;52.508;5.502;2023-03-23T02:52:17;4.03;;;1.65;;
78787;SDS011;68131;52.508;5.502;2023-03-23T02:54:52;3.75;;;2.15;;
78787;SDS011;68131;52.508;5.502;2023-03-23T02:57:24;3.72;;;1.90;;
78787;SDS011;68131;52.508;5.502;2023-03-23T02:59:57;3.55;;;1.60;;
78787;SDS011;68131;52.508;5.502;2023-03-23T03:02:26;3.72;;;1.70;;
78787;SDS011;68131;52.508;5.502;2023-03-23T03:05:01;4.25;;;1.42;;
78787;SDS011;68131;52.508;5.502;2023-03-23T03:07:47;3.63;;;1.55;;
78787;SDS011;68131;52.508;5.502;2023-03-23T03:10:34;3.20;;;1.50;;
78787;SDS011;68131;52.508;5.502;2023-03-23T03:13:11;3.95;;;1.70;;
78787;SDS011;68131;52.508;5.502;2023-03-23T03:15:48;3.65;;;1.55;;
78787;SDS011;68131;52.508;5.502;2023-03-23T03:18:22;5.75;;;1.40;;
78787;SDS011;68131;52.508;5.502;2023-03-23T03:20:59;3.58;;;1.50;;
78787;SDS011;68131;52.508;5.502;2023-03-23T03:23:32;3.83;;;1.70;;
78787;SDS011;68131;52.508;5.502;2023-03-23T03:26:03;4.10;;;1.70;;
78787;SDS011;68131;52.508;5.502;2023-03-23T03:28:47;4.25;;;1.80;;
78787;SDS011;68131;52.508;5.502;2023-03-23T03:31:20;4.88;;;1.83;;
78787;SDS011;68131;52.508;5.502;2023-03-23T03:33:52;4.88;;;1.70;;
78787;SDS011;68131;52.508;5.502;2023-03-23T03:36:26;4.03;;;1.52;;
78787;SDS011;68131;52.508;5.502;2023-03-23T03:41:35;3.00;;;1.30;;
78787;SDS011;68131;52.508;5.502;2023-03-23T03:44:05;3.58;;;1.52;;
78787;SDS011;68131;52.508;5.502;2023-03-23T03:46:35;6.22;;;1.88;;
78787;SDS011;68131;52.508;5.502;2023-03-23T03:49:06;4.88;;;1.38;;
78787;SDS011;68131;52.508;5.502;2023-03-23T03:51:41;3.80;;;1.45;;
78787;SDS011;68131;52.508;5.502;2023-03-23T03:54:17;3.63;;;1.67;;
78787;SDS011;68131;52.508;5.502;2023-03-23T03:56:47;5.15;;;1.48;;
78787;SDS011;68131;52.508;5.502;2023-03-23T03:59:55;3.65;;;1.02;;
78787;SDS011;68131;52.508;5.502;2023-03-23T04:02:45;4.38;;;1.30;;
78787;SDS011;68131;52.508;5.502;2023-03-23T04:05:21;2.95;;;1.20;;
78787;SDS011;68131;52.508;5.502;2023-03-23T04:07:54;6.78;;;1.65;;
78787;SDS011;68131;52.508;5.502;2023-03-23T04:10:30;7.65;;;1.90;;
78787;SDS011;68131;52.508;5.502;2023-03-23T04:13:00;5.65;;;2.17;;
78787;SDS011;68131;52.508;5.502;2023-03-23T04:15:48;3.72;;;1.48;;
78787;SDS011;68131;52.508;5.502;2023-03-23T04:18:17;3.25;;;1.17;;
78787;SDS011;68131;52.508;5.502;2023-03-23T04:20:48;7.32;;;1.70;;
78787;SDS011;68131;52.508;5.502;2023-03-23T04:23:22;6.28;;;1.60;;
78787;SDS011;68131;52.508;5.502;2023-03-23T04:25:52;4.30;;;1.30;;
78787;SDS011;68131;52.508;5.502;2023-03-23T04:28:25;6.25;;;1.30;;
78787;SDS011;68131;52.508;5.502;2023-03-23T04:31:32;3.15;;;1.13;;
78787;SDS011;68131;52.508;5.502;2023-03-23T04:34:11;3.53;;;1.48;;
78787;SDS011;68131;52.508;5.502;2023-03-23T04:36:46;8.23;;;1.70;;
78787;SDS011;68131;52.508;5.502;2023-03-23T04:39:22;8.32;;;1.55;;
78787;SDS011;68131;52.508;5.502;2023-03-23T04:41:54;5.30;;;1.30;;
78787;SDS011;68131;52.508;5.502;2023-03-23T04:44:45;1.95;;;1.10;;
78787;SDS011;68131;52.508;5.502;2023-03-23T04:47:26;4.75;;;1.25;;
78787;SDS011;68131;52.508;5.502;2023-03-23T04:49:58;6.25;;;1.55;;
78787;SDS011;68131;52.508;5.502;2023-03-23T04:52:34;4.63;;;1.58;;
78787;SDS011;68131;52.508;5.502;2023-03-23T04:55:09;2.60;;;1.25;;
78787;SDS011;68131;52.508;5.502;2023-03-23T05:00:28;2.83;;;1.23;;
78787;SDS011;68131;52.508;5.502;2023-03-23T05:02:58;2.63;;;1.13;;
78787;SDS011;68131;52.508;5.502;2023-03-23T05:05:28;3.22;;;1.10;;
78787;SDS011;68131;52.508;5.502;2023-03-23T05:08:04;3.25;;;1.05;;
78787;SDS011;68131;52.508;5.502;2023-03-23T05:10:42;5.88;;;1.20;;
78787;SDS011;68131;52.508;5.502;2023-03-23T05:13:18;5.07;;;1.05;;
78787;SDS011;68131;52.508;5.502;2023-03-23T05:15:51;4.75;;;1.33;;
78787;SDS011;68131;52.508;5.502;2023-03-23T05:18:21;4.05;;;1.25;;
78787;SDS011;68131;52.508;5.502;2023-03-23T05:20:51;4.82;;;1.08;;
78787;SDS011;68131;52.508;5.502;2023-03-23T05:23:22;3.38;;;1.27;;
78787;SDS011;68131;52.508;5.502;2023-03-23T05:26:01;4.95;;;2.22;;
78787;SDS011;68131;52.508;5.502;2023-03-23T05:28:32;6.22;;;1.50;;
78787;SDS011;68131;52.508;5.502;2023-03-23T05:31:17;2.33;;;1.40;;
78787;SDS011;68131;52.508;5.502;2023-03-23T05:33:46;6.05;;;2.13;;
78787;SDS011;68131;52.508;5.502;2023-03-23T05:36:24;5.00;;;1.65;;
78787;SDS011;68131;52.508;5.502;2023-03-23T05:39:09;7.40;;;1.60;;
78787;SDS011;68131;52.508;5.502;2023-03-23T05:42:01;4.13;;;1.70;;
78787;SDS011;68131;52.508;5.502;2023-03-23T05:44:46;5.88;;;1.38;;
78787;SDS011;68131;52.508;5.502;2023-03-23T05:47:16;5.07;;;1.65;;
78787;SDS011;68131;52.508;5.502;2023-03-23T05:49:51;7.40;;;1.95;;
78787;SDS011;68131;52.508;5.502;2023-03-23T05:52:22;5.72;;;1.58;;
78787;SDS011;68131;52.508;5.502;2023-03-23T05:54:53;6.55;;;1.98;;
78787;SDS011;68131;52.508;5.502;2023-03-23T05:57:26;5.40;;;1.50;;
78787;SDS011;68131;52.508;5.502;2023-03-23T06:00:02;6.95;;;1.60;;
78787;SDS011;68131;52.508;5.502;2023-03-23T06:02:38;5.80;;;1.60;;
78787;SDS011;68131;52.508;5.502;2023-03-23T06:05:12;5.18;;;1.40;;
78787;SDS011;68131;52.508;5.502;2023-03-23T06:07:46;8.63;;;1.95;;
78787;SDS011;68131;52.508;5.502;2023-03-23T06:10:15;9.07;;;1.80;;
78787;SDS011;68131;52.508;5.502;2023-03-23T06:12:54;7.13;;;1.60;;
78787;SDS011;68131;52.508;5.502;2023-03-23T06:15:28;7.80;;;1.55;;
78787;SDS011;68131;52.508;5.502;2023-03-23T06:18:24;8.95;;;2.03;;
78787;SDS011;68131;52.508;5.502;2023-03-23T06:21:10;8.07;;;1.60;;
78787;SDS011;68131;52.508;5.502;2023-03-23T06:23:48;5.43;;;2.15;;
78787;SDS011;68131;52.508;5.502;2023-03-23T06:26:19;7.97;;;1.70;;
78787;SDS011;68131;52.508;5.502;2023-03-23T06:28:58;7.50;;;1.75;;
78787;SDS011;68131;52.508;5.502;2023-03-23T06:31:31;6.22;;;1.52;;
78787;SDS011;68131;52.508;5.502;2023-03-23T06:34:02;6.78;;;1.58;;
78787;SDS011;68131;52.508;5.502;2023-03-23T06:36:54;7.90;;;1.38;;
78787;SDS011;68131;52.508;5.502;2023-03-23T06:39:44;6.65;;;1.35;;
78787;SDS011;68131;52.508;5.502;2023-03-23T06:42:21;6.82;;;1.55;;
78787;SDS011;68131;52.508;5.502;2023-03-23T06:45:14;9.38;;;2.25;;
78787;SDS011;68131;52.508;5.502;2023-03-23T06:47:45;8.52;;;1.77;;
78787;SDS011;68131;52.508;5.502;2023-03-23T06:50:15;10.52;;;2.15;;
78787;SDS011;68131;52.508;5.502;2023-03-23T06:52:45;5.45;;;1.52;;
78787;SDS011;68131;52.508;5.502;2023-03-23T06:55:16;9.07;;;1.73;;
78787;SDS011;68131;52.508;5.502;2023-03-23T06:57:46;8.35;;;2.72;;
78787;SDS011;68131;52.508;5.502;2023-03-23T07:00:18;8.88;;;1.88;;
78787;SDS011;68131;52.508;5.502;2023-03-23T07:02:48;11.57;;;2.15;;
78787;SDS011;68131;52.508;5.502;2023-03-23T07:05:18;6.00;;;1.52;;
78787;SDS011;68131;52.508;5.502;2023-03-23T07:07:49;7.18;;;1.75;;
78787;SDS011;68131;52.508;5.502;2023-03-23T07:10:32;9.07;;;2.05;;
78787;SDS011;68131;52.508;5.502;2023-03-23T07:13:02;7.95;;;1.77;;
78787;SDS011;68131;52.508;5.502;2023-03-23T07:15:45;13.73;;;2.97;;
78787;SDS011;68131;52.508;5.502;2023-03-23T07:18:15;16.65;;;2.40;;
78787;SDS011;68131;52.508;5.502;2023-03-23T07:20:47;11.35;;;1.65;;
78787;SDS011;68131;52.508;5.502;2023-03-23T07:23:17;7.45;;;2.05;;
78787;SDS011;68131;52.508;5.502;2023-03-23T07:26:03;14.70;;;3.38;;
78787;SDS011;68131;52.508;5.502;2023-03-23T07:28:44;12.27;;;2.30;;
78787;SDS011;68131;52.508;5.502;2023-03-23T07:31:24;10.73;;;2.03;;
78787;SDS011;68131;52.508;5.502;2023-03-23T07:33:54;18.23;;;2.60;;
78787;SDS011;68131;52.508;5.502;2023-03-23T07:36:32;13.93;;;2.45;;
78787;SDS011;68131;52.508;5.502;2023-03-23T07:39:04;11.98;;;2.38;;
78787;SDS011;68131;52.508;5.502;2023-03-23T07:41:33;9.45;;;2.13;;
78787;SDS011;68131;52.508;5.502;2023-03-23T07:44:14;7.35;;;1.60;;
78787;SDS011;68131;52.508;5.502;2023-03-23T07:46:46;9.60;;;2.03;;
78787;SDS011;68131;52.508;5.502;2023-03-23T07:49:19;18.02;;;2.30;;
78787;SDS011;68131;52.508;5.502;2023-03-23T07:51:59;10.25;;;1.48;;
78787;SDS011;68131;52.508;5.502;2023-03-23T07:54:29;15.85;;;3.22;;
78787;SDS011;68131;52.508;5.502;2023-03-23T07:57:18;12.02;;;2.00;;
78787;SDS011;68131;52.508;5.502;2023-03-23T07:59:53;12.00;;;2.22;;
78787;SDS011;68131;52.508;5.502;2023-03-23T08:02:25;12.07;;;2.40;;
78787;SDS011;68131;52.508;5.502;2023-03-23T08:05:19;10.85;;;2.70;;
78787;SDS011;68131;52.508;5.502;2023-03-23T08:08:07;9.82;;;1.98;;
78787;SDS011;68131;52.508;5.502;2023-03-23T08:11:09;8.65;;;1.58;;
78787;SDS011;68131;52.508;5.502;2023-03-23T08:14:10;16.45;;;2.60;;
78787;SDS011;68131;52.508;5.502;2023-03-23T08:16:59;9.35;;;1.65;;
78787;SDS011;68131;52.508;5.502;2023-03-23T08:19:40;14.55;;;2.15;;
78787;SDS011;68131;52.508;5.502;2023-03-23T08:22:25;9.00;;;2.08;;
78787;SDS011;68131;52.508;5.502;2023-03-23T08:25:28;14.35;;;2.40;;
78787;SDS011;68131;52.508;5.502;2023-03-23T08:28:18;10.15;;;1.50;;
78787;SDS011;68131;52.508;5.502;2023-03-23T08:31:06;9.13;;;1.83;;
78787;SDS011;68131;52.508;5.502;2023-03-23T08:34:05;10.68;;;1.75;;
78787;SDS011;68131;52.508;5.502;2023-03-23T08:36:46;11.35;;;1.88;;
78787;SDS011;68131;52.508;5.502;2023-03-23T08:39:34;10.95;;;1.83;;
78787;SDS011;68131;52.508;5.502;2023-03-23T08:42:14;13.95;;;2.20;;
78787;SDS011;68131;52.508;5.502;2023-03-23T08:45:06;9.52;;;1.42;;
78787;SDS011;68131;52.508;5.502;2023-03-23T08:47:55;5.63;;;1.90;;
78787;SDS011;68131;52.508;5.502;2023-03-23T08:50:43;10.00;;;1.70;;
78787;SDS011;68131;52.508;5.502;2023-03-23T08:53:46;9.77;;;1.33;;
78787;SDS011;68131;52.508;5.502;2023-03-23T08:59:10;10.35;;;1.73;;
78787;SDS011;68131;52.508;5.502;2023-03-23T09:01:53;6.00;;;1.33;;
78787;SDS011;68131;52.508;5.502;2023-03-23T09:04:35;7.82;;;1.73;;
78787;SDS011;68131;52.508;5.502;2023-03-23T09:07:26;8.45;;;1.85;;
78787;SDS011;68131;52.508;5.502;2023-03-23T09:09:57;8.85;;;1.45;;
78787;SDS011;68131;52.508;5.502;2023-03-23T09:12:26;5.35;;;1.17;;
78787;SDS011;68131;52.508;5.502;2023-03-23T09:14:55;9.15;;;2.00;;
78787;SDS011;68131;52.508;5.502;2023-03-23T09:17:25;6.65;;;1.88;;
78787;SDS011;68131;52.508;5.502;2023-03-23T09:19:54;9.07;;;1.77;;
78787;SDS011;68131;52.508;5.502;2023-03-23T09:22:24;9.05;;;1.80;;
78787;SDS011;68131;52.508;5.502;2023-03-23T09:24:53;6.65;;;1.48;;
78787;SDS011;68131;52.508;5.502;2023-03-23T09:27:25;7.03;;;1.65;;
78787;SDS011;68131;52.508;5.502;2023-03-23T09:29:54;5.25;;;1.48;;
78787;SDS011;68131;52.508;5.502;2023-03-23T09:32:27;7.40;;;2.03;;
78787;SDS011;68131;52.508;5.502;2023-03-23T09:34:56;3.83;;;1.38;;
78787;SDS011;68131;52.508;5.502;2023-03-23T09:37:26;6.07;;;1.48;;
78787;SDS011;68131;52.508;5.502;2023-03-23T09:39:55;9.88;;;1.63;;
78787;SDS011;68131;52.508;5.502;2023-03-23T09:42:33;6.88;;;1.70;;
78787;SDS011;68131;52.508;5.502;2023-03-23T09:45:12;12.07;;;2.30;;
78787;SDS011;68131;52.508;5.502;2023-03-23T09:47:54;8.38;;;1.60;;
78787;SDS011;68131;52.508;5.502;2023-03-23T09:50:33;8.50;;;1.48;;
78787;SDS011;68131;52.508;5.502;2023-03-23T09:53:05;8.30;;;1.80;;
78787;SDS011;68131;52.508;5.502;2023-03-23T09:55:39;7.43;;;1.90;;
78787;SDS011;68131;52.508;5.502;2023-03-23T09:58:12;8.52;;;2.22;;
78787;SDS011;68131;52.508;5.502;2023-03-23T10:00:50;9.10;;;2.03;;
78787;SDS011;68131;52.508;5.502;2023-03-23T10:03:26;7.03;;;1.85;;
78787;SDS011;68131;52.508;5.502;2023-03-23T10:05:59;7.75;;;1.52;;
78787;SDS011;68131;52.508;5.502;2023-03-23T10:08:29;6.82;;;1.67;;
78787;SDS011;68131;52.508;5.502;2023-03-23T10:11:01;6.55;;;1.60;;
78787;SDS011;68131;52.508;5.502;2023-03-23T10:13:47;7.22;;;1.67;;
78787;SDS011;68131;52.508;5.502;2023-03-23T10:16:37;7.30;;;1.88;;
78787;SDS011;68131;52.508;5.502;2023-03-23T10:19:10;6.85;;;1.88;;
78787;SDS011;68131;52.508;5.502;2023-03-23T10:21:41;8.35;;;1.90;;
78787;SDS011;68131;52.508;5.502;2023-03-23T10:24:16;8.10;;;1.80;;
78787;SDS011;68131;52.508;5.502;2023-03-23T10:26:52;7.47;;;1.50;;
78787;SDS011;68131;52.508;5.502;2023-03-23T10:29:30;7.97;;;1.88;;
78787;SDS011;68131;52.508;5.502;2023-03-23T10:32:09;10.95;;;1.70;;
78787;SDS011;68131;52.508;5.502;2023-03-23T10:34:42;5.60;;;1.60;;
78787;SDS011;68131;52.508;5.502;2023-03-23T10:37:16;7.57;;;1.33;;
78787;SDS011;68131;52.508;5.502;2023-03-23T10:39:49;5.22;;;1.45;;
78787;SDS011;68131;52.508;5.502;2023-03-23T10:42:21;4.63;;;1.33;;
78787;SDS011;68131;52.508;5.502;2023-03-23T10:44:55;10.55;;;1.60;;
78787;SDS011;68131;52.508;5.502;2023-03-23T10:47:26;7.10;;;1.35;;
78787;SDS011;68131;52.508;5.502;2023-03-23T10:49:56;7.22;;;1.50;;
78787;SDS011;68131;52.508;5.502;2023-03-23T10:52:29;8.93;;;1.58;;
78787;SDS011;68131;52.508;5.502;2023-03-23T10:55:03;6.38;;;1.58;;
78787;SDS011;68131;52.508;5.502;2023-03-23T10:57:35;8.95;;;1.70;;
78787;SDS011;68131;52.508;5.502;2023-03-23T11:00:16;8.60;;;1.77;;
78787;SDS011;68131;52.508;5.502;2023-03-23T11:02:47;9.52;;;1.60;;
78787;SDS011;68131;52.508;5.502;2023-03-23T11:05:32;8.07;;;2.28;;
78787;SDS011;68131;52.508;5.502;2023-03-23T11:08:10;8.05;;;1.40;;
78787;SDS011;68131;52.508;5.502;2023-03-23T11:10:41;7.88;;;1.77;;
78787;SDS011;68131;52.508;5.502;2023-03-23T11:13:16;10.60;;;1.80;;
78787;SDS011;68131;52.508;5.502;2023-03-23T11:15:49;7.82;;;1.63;;
78787;SDS011;68131;52.508;5.502;2023-03-23T11:18:18;9.20;;;1.42;;
78787;SDS011;68131;52.508;5.502;2023-03-23T11:20:50;11.93;;;1.98;;
78787;SDS011;68131;52.508;5.502;2023-03-23T11:23:22;6.68;;;1.52;;
78787;SDS011;68131;52.508;5.502;2023-03-23T11:25:55;9.43;;;1.45;;
78787;SDS011;68131;52.508;5.502;2023-03-23T11:28:28;6.63;;;1.58;;
78787;SDS011;68131;52.508;5.502;2023-03-23T11:31:03;9.68;;;1.73;;
78787;SDS011;68131;52.508;5.502;2023-03-23T11:33:38;6.32;;;1.40;;
78787;SDS011;68131;52.508;5.502;2023-03-23T11:36:11;7.57;;;1.85;;
78787;SDS011;68131;52.508;5.502;2023-03-23T11:38:41;9.88;;;1.50;;
78787;SDS011;68131;52.508;5.502;2023-03-23T11:41:12;10.40;;;1.60;;
78787;SDS011;68131;52.508;5.502;2023-03-23T11:43:46;6.70;;;1.67;;
78787;SDS011;68131;52.508;5.502;2023-03-23T11:46:22;6.50;;;1.23;;
78787;SDS011;68131;52.508;5.502;2023-03-23T11:49:01;6.55;;;1.50;;
78787;SDS011;68131;52.508;5.502;2023-03-23T11:51:34;7.75;;;1.40;;
78787;SDS011;68131;52.508;5.502;2023-03-23T11:54:09;11.38;;;1.60;;
78787;SDS011;68131;52.508;5.502;2023-03-23T11:56:44;3.97;;;1.27;;
78787;SDS011;68131;52.508;5.502;2023-03-23T11:59:14;9.57;;;2.17;;
78787;SDS011;68131;52.508;5.502;2023-03-23T12:01:53;8.45;;;1.60;;
78787;SDS011;68131;52.508;5.502;2023-03-23T12:04:33;8.13;;;2.22;;
78787;SDS011;68131;52.508;5.502;2023-03-23T12:07:14;6.30;;;1.35;;
78787;SDS011;68131;52.508;5.502;2023-03-23T12:09:55;10.65;;;2.00;;
78787;SDS011;68131;52.508;5.502;2023-03-23T12:12:33;9.55;;;1.77;;
78787;SDS011;68131;52.508;5.502;2023-03-23T12:15:12;6.85;;;1.15;;
78787;SDS011;68131;52.508;5.502;2023-03-23T12:17:54;8.55;;;1.48;;
78787;SDS011;68131;52.508;5.502;2023-03-23T12:20:34;11.55;;;2.03;;
78787;SDS011;68131;52.508;5.502;2023-03-23T12:23:15;10.18;;;2.17;;
78787;SDS011;68131;52.508;5.502;2023-03-23T12:25:57;6.70;;;1.42;;
78787;SDS011;68131;52.508;5.502;2023-03-23T12:28:45;9.38;;;1.48;;
78787;SDS011;68131;52.508;5.502;2023-03-23T12:31:33;7.63;;;1.60;;
78787;SDS011;68131;52.508;5.502;2023-03-23T12:34:14;6.85;;;1.50;;
78787;SDS011;68131;52.508;5.502;2023-03-23T12:36:56;7.40;;;1.85;;
78787;SDS011;68131;52.508;5.502;2023-03-23T12:39:42;10.15;;;1.50;;
78787;SDS011;68131;52.508;5.502;2023-03-23T12:42:21;8.02;;;1.42;;
78787;SDS011;68131;52.508;5.502;2023-03-23T12:44:58;7.40;;;1.40;;
78787;SDS011;68131;52.508;5.502;2023-03-23T12:47:35;10.20;;;1.42;;
78787;SDS011;68131;52.508;5.502;2023-03-23T12:50:14;7.97;;;1.88;;
78787;SDS011;68131;52.508;5.502;2023-03-23T12:52:48;8.55;;;1.45;;
78787;SDS011;68131;52.508;5.502;2023-03-23T12:55:23;7.50;;;1.70;;
78787;SDS011;68131;52.508;5.502;2023-03-23T12:57:59;8.85;;;1.83;;
78787;SDS011;68131;52.508;5.502;2023-03-23T13:00:46;9.00;;;1.80;;
78787;SDS011;68131;52.508;5.502;2023-03-23T13:03:23;5.20;;;1.52;;
78787;SDS011;68131;52.508;5.502;2023-03-23T13:06:02;9.32;;;1.88;;
78787;SDS011;68131;52.508;5.502;2023-03-23T13:08:37;10.32;;;1.63;;
78787;SDS011;68131;52.508;5.502;2023-03-23T13:11:10;6.72;;;1.85;;
78787;SDS011;68131;52.508;5.502;2023-03-23T13:13:45;7.15;;;1.83;;
78787;SDS011;68131;52.508;5.502;2023-03-23T13:16:22;9.82;;;2.13;;
78787;SDS011;68131;52.508;5.502;2023-03-23T13:19:02;7.57;;;1.60;;
78787;SDS011;68131;52.508;5.502;2023-03-23T13:21:41;7.72;;;1.92;;
78787;SDS011;68131;52.508;5.502;2023-03-23T13:24:17;8.80;;;1.42;;
78787;SDS011;68131;52.508;5.502;2023-03-23T13:26:49;5.60;;;1.40;;
78787;SDS011;68131;52.508;5.502;2023-03-23T13:29:21;6.60;;;1.52;;
78787;SDS011;68131;52.508;5.502;2023-03-23T13:32:03;5.88;;;1.50;;
78787;SDS011;68131;52.508;5.502;2023-03-23T13:34:34;4.57;;;1.00;;
78787;SDS011;68131;52.508;5.502;2023-03-23T13:37:10;7.85;;;1.45;;
78787;SDS011;68131;52.508;5.502;2023-03-23T13:39:50;9.02;;;2.28;;
78787;SDS011;68131;52.508;5.502;2023-03-23T13:42:22;7.72;;;1.23;;
78787;SDS011;68131;52.508;5.502;2023-03-23T13:44:56;6.40;;;1.38;;
78787;SDS011;68131;52.508;5.502;2023-03-23T13:47:36;9.45;;;1.60;;
78787;SDS011;68131;52.508;5.502;2023-03-23T13:50:11;7.50;;;1.65;;
78787;SDS011;68131;52.508;5.502;2023-03-23T13:52:56;6.63;;;1.67;;
78787;SDS011;68131;52.508;5.502;2023-03-23T13:55:38;5.20;;;1.35;;
78787;SDS011;68131;52.508;5.502;2023-03-23T13:58:10;7.10;;;1.40;;
78787;SDS011;68131;52.508;5.502;2023-03-23T14:01:00;7.50;;;1.30;;
78787;SDS011;68131;52.508;5.502;2023-03-23T14:03:38;5.88;;;2.05;;
78787;SDS011;68131;52.508;5.502;2023-03-23T14:06:12;6.95;;;1.50;;
78787;SDS011;68131;52.508;5.502;2023-03-23T14:09:03;8.43;;;1.60;;
78787;SDS011;68131;52.508;5.502;2023-03-23T14:11:44;4.70;;;1.50;;
78787;SDS011;68131;52.508;5.502;2023-03-23T14:14:18;5.68;;;1.48;;
78787;SDS011;68131;52.508;5.502;2023-03-23T14:16:53;4.47;;;1.58;;
78787;SDS011;68131;52.508;5.502;2023-03-23T14:19:33;7.60;;;1.48;;
78787;SDS011;68131;52.508;5.502;2023-03-23T14:22:16;11.95;;;1.75;;
78787;SDS011;68131;52.508;5.502;2023-03-23T14:24:50;4.63;;;1.40;;
78787;SDS011;68131;52.508;5.502;2023-03-23T14:27:20;4.05;;;1.00;;
78787;SDS011;68131;52.508;5.502;2023-03-23T14:29:57;10.13;;;2.42;;
78787;SDS011;68131;52.508;5.502;2023-03-23T14:32:27;7.05;;;1.48;;
78787;SDS011;68131;52.508;5.502;2023-03-23T14:34:58;9.15;;;1.73;;
78787;SDS011;68131;52.508;5.502;2023-03-23T14:37:33;8.77;;;1.73;;
78787;SDS011;68131;52.508;5.502;2023-03-23T14:40:08;8.85;;;1.23;;
78787;SDS011;68131;52.508;5.502;2023-03-23T14:42:42;8.57;;;1.95;;
78787;SDS011;68131;52.508;5.502;2023-03-23T14:45:14;9.88;;;1.52;;
78787;SDS011;68131;52.508;5.502;2023-03-23T14:47:45;8.30;;;1.67;;
78787;SDS011;68131;52.508;5.502;2023-03-23T14:50:25;7.30;;;1.52;;
78787;SDS011;68131;52.508;5.502;2023-03-23T14:52:57;6.93;;;1.50;;
78787;SDS011;68131;52.508;5.502;2023-03-23T14:55:41;9.73;;;1.67;;
78787;SDS011;68131;52.508;5.502;2023-03-23T15:00:42;7.75;;;1.50;;
78787;SDS011;68131;52.508;5.502;2023-03-23T15:03:14;7.80;;;1.45;;
78787;SDS011;68131;52.508;5.502;2023-03-23T15:05:46;9.70;;;1.40;;
78787;SDS011;68131;52.508;5.502;2023-03-23T15:08:19;8.38;;;1.92;;
78787;SDS011;68131;52.508;5.502;2023-03-23T15:10:59;5.97;;;1.38;;
78787;SDS011;68131;52.508;5.502;2023-03-23T15:13:33;6.95;;;1.15;;
78787;SDS011;68131;52.508;5.502;2023-03-23T15:16:05;4.07;;;1.10;;
78787;SDS011;68131;52.508;5.502;2023-03-23T15:18:39;6.30;;;1.45;;
78787;SDS011;68131;52.508;5.502;2023-03-23T15:21:19;8.73;;;1.40;;
78787;SDS011;68131;52.508;5.502;2023-03-23T15:23:52;8.73;;;1.80;;
78787;SDS011;68131;52.508;5.502;2023-03-23T15:26:28;6.43;;;1.40;;
78787;SDS011;68131;52.508;5.502;2023-03-23T15:29:00;7.45;;;1.30;;
78787;SDS011;68131;52.508;5.502;2023-03-23T15:31:32;6.80;;;1.33;;
78787;SDS011;68131;52.508;5.502;2023-03-23T15:34:02;5.65;;;0.95;;
78787;SDS011;68131;52.508;5.502;2023-03-23T15:36:33;7.68;;;1.65;;
78787;SDS011;68131;52.508;5.502;2023-03-23T15:39:03;7.38;;;1.45;;
78787;SDS011;68131;52.508;5.502;2023-03-23T15:41:44;7.25;;;1.20;;
78787;SDS011;68131;52.508;5.502;2023-03-23T15:44:26;6.82;;;1.38;;
78787;SDS011;68131;52.508;5.502;2023-03-23T15:47:10;6.43;;;1.45;;
78787;SDS011;68131;52.508;5.502;2023-03-23T15:49:43;8.85;;;1.80;;
78787;SDS011;68131;52.508;5.502;2023-03-23T15:52:13;8.45;;;1.30;;
78787;SDS011;68131;52.508;5.502;2023-03-23T15:54:46;10.27;;;3.35;;
78787;SDS011;68131;52.508;5.502;2023-03-23T15:57:18;5.30;;;1.20;;
78787;SDS011;68131;52.508;5.502;2023-03-23T15:59:47;8.02;;;1.60;;